createdAt,value
2022-12-08T00:00:07.397Z,942.10
2022-12-08T00:00:17.415Z,942.12
2022-12-08T00:00:27.423Z,942.12
2022-12-08T00:00:37.403Z,942.12
2022-12-08T00:00:47.407Z,942.11
2022-12-08T00:00:57.433Z,942.11
2022-12-08T00:01:07.409Z,942.11
2022-12-08T00:01:17.415Z,942.12
2022-12-08T00:01:27.409Z,942.13
2022-12-08T00:01:37.478Z,942.13
2022-12-08T00:01:47.520Z,942.10
2022-12-08T00:01:57.562Z,942.11
2022-12-08T00:02:07.527Z,942.14
2022-12-08T00:02:17.529Z,942.13
2022-12-08T00:02:27.574Z,942.09
2022-12-08T00:02:37.549Z,942.07
2022-12-08T00:02:47.538Z,942.09
2022-12-08T00:02:57.830Z,942.10
2022-12-08T00:03:07.563Z,942.08
2022-12-08T00:03:17.602Z,942.08
2022-12-08T00:03:27.582Z,942.09
2022-12-08T00:03:37.501Z,942.10
2022-12-08T00:03:47.427Z,942.12
2022-12-08T00:03:57.425Z,942.13
2022-12-08T00:04:07.429Z,942.14
2022-12-08T00:04:17.429Z,942.09
2022-12-08T00:04:27.433Z,942.09
2022-12-08T00:04:37.431Z,942.09
2022-12-08T00:04:47.417Z,942.09
2022-12-08T00:04:57.430Z,942.11
2022-12-08T00:05:07.434Z,942.11
2022-12-08T00:05:17.448Z,942.10
2022-12-08T00:05:27.436Z,942.10
2022-12-08T00:05:37.437Z,942.10
2022-12-08T00:05:47.438Z,942.09
2022-12-08T00:05:57.444Z,942.09
2022-12-08T00:06:07.440Z,942.09
2022-12-08T00:06:17.439Z,942.10
2022-12-08T00:06:27.445Z,942.09
2022-12-08T00:06:37.440Z,942.07
2022-12-08T00:06:47.442Z,942.07
2022-12-08T00:06:57.443Z,942.06
2022-12-08T00:07:07.445Z,942.04
2022-12-08T00:07:17.452Z,942.04
2022-12-08T00:07:27.449Z,942.05
2022-12-08T00:07:37.501Z,942.05
2022-12-08T00:07:47.537Z,942.04
2022-12-08T00:07:57.469Z,942.03
2022-12-08T00:08:07.539Z,942.03
2022-12-08T00:08:17.511Z,942.04
2022-12-08T00:08:27.466Z,942.03
2022-12-08T00:08:37.437Z,942.04
2022-12-08T00:08:47.456Z,942.05
2022-12-08T00:08:57.453Z,942.04
2022-12-08T00:09:07.458Z,942.02
2022-12-08T00:09:17.458Z,942.00
2022-12-08T00:09:27.470Z,942.00
2022-12-08T00:09:39.322Z,942.01
2022-12-08T00:09:47.459Z,942.01
2022-12-08T00:09:57.459Z,942.00
2022-12-08T00:10:39.872Z,941.98
2022-12-08T00:10:47.315Z,941.97
2022-12-08T00:10:48.333Z,941.97
2022-12-08T00:10:49.053Z,941.98
2022-12-08T00:10:49.985Z,941.98
2022-12-08T00:10:57.463Z,941.98
2022-12-08T00:11:07.467Z,941.98
2022-12-08T00:11:17.470Z,941.97
2022-12-08T00:11:27.468Z,941.97
2022-12-08T00:11:37.468Z,941.97
2022-12-08T00:11:47.467Z,941.97
2022-12-08T00:11:57.470Z,941.97
2022-12-08T00:12:07.469Z,941.96
2022-12-08T00:12:17.473Z,941.96
2022-12-08T00:12:27.475Z,941.95
2022-12-08T00:12:37.482Z,941.95
2022-12-08T00:12:47.479Z,941.94
2022-12-08T00:12:57.478Z,941.94
2022-12-08T00:13:07.479Z,941.94
2022-12-08T00:13:17.479Z,941.92
2022-12-08T00:13:27.481Z,941.91
2022-12-08T00:13:37.480Z,941.91
2022-12-08T00:13:47.483Z,941.92
2022-12-08T00:13:57.481Z,941.93
2022-12-08T00:14:07.483Z,941.92
2022-12-08T00:14:17.486Z,941.91
2022-12-08T00:14:27.483Z,941.91
2022-12-08T00:14:37.482Z,941.90
2022-12-08T00:14:47.489Z,941.90
2022-12-08T00:14:57.486Z,941.90
2022-12-08T00:15:07.493Z,941.87
2022-12-08T00:15:17.502Z,941.89
2022-12-08T00:15:27.489Z,941.88
2022-12-08T00:15:37.499Z,941.87
2022-12-08T00:15:47.491Z,941.86
2022-12-08T00:15:57.492Z,941.86
2022-12-08T00:16:07.540Z,941.85
2022-12-08T00:16:17.528Z,941.84
2022-12-08T00:16:27.540Z,941.84
2022-12-08T00:16:37.538Z,941.83
2022-12-08T00:16:47.527Z,941.82
2022-12-08T00:16:57.611Z,941.82
2022-12-08T00:17:07.546Z,941.81
2022-12-08T00:17:17.495Z,941.80
2022-12-08T00:17:27.497Z,941.79
2022-12-08T00:17:37.496Z,941.78
2022-12-08T00:17:47.499Z,941.79
2022-12-08T00:17:57.501Z,941.80
2022-12-08T00:18:07.503Z,941.78
2022-12-08T00:18:17.506Z,941.77
2022-12-08T00:18:27.502Z,941.78
2022-12-08T00:18:37.503Z,941.80
2022-12-08T00:18:47.509Z,941.79
2022-12-08T00:18:57.508Z,941.78
2022-12-08T00:19:07.506Z,941.79
2022-12-08T00:19:17.505Z,941.81
2022-12-08T00:19:27.509Z,941.82
2022-12-08T00:19:37.508Z,941.81
2022-12-08T00:19:47.514Z,941.80
2022-12-08T00:19:57.513Z,941.78
2022-12-08T00:20:07.510Z,941.79
2022-12-08T00:20:17.521Z,941.80
2022-12-08T00:20:27.511Z,941.80
2022-12-08T00:20:37.513Z,941.80
2022-12-08T00:20:47.510Z,941.80
2022-12-08T00:20:57.518Z,941.79
2022-12-08T00:21:07.515Z,941.79
2022-12-08T00:21:17.514Z,941.79
2022-12-08T00:21:27.512Z,941.80
2022-12-08T00:21:37.515Z,941.78
2022-12-08T00:21:47.519Z,941.77
2022-12-08T00:21:57.520Z,941.78
2022-12-08T00:22:07.524Z,941.78
2022-12-08T00:22:17.520Z,941.77
2022-12-08T00:22:27.520Z,941.77
2022-12-08T00:22:37.519Z,941.77
2022-12-08T00:22:47.524Z,941.76
2022-12-08T00:22:57.522Z,941.76
2022-12-08T00:23:07.525Z,941.77
2022-12-08T00:23:17.525Z,941.77
2022-12-08T00:23:27.527Z,941.77
2022-12-08T00:23:37.527Z,941.77
2022-12-08T00:23:47.531Z,941.78
2022-12-08T00:23:57.529Z,941.80
2022-12-08T00:24:07.554Z,941.84
2022-12-08T00:24:17.528Z,941.83
2022-12-08T00:24:27.530Z,941.79
2022-12-08T00:24:37.532Z,941.77
2022-12-08T00:24:47.535Z,941.78
2022-12-08T00:24:57.535Z,941.76
2022-12-08T00:25:07.535Z,941.73
2022-12-08T00:25:17.552Z,941.73
2022-12-08T00:25:27.538Z,941.71
2022-12-08T00:25:37.550Z,941.73
2022-12-08T00:25:47.541Z,941.75
2022-12-08T00:25:57.541Z,941.76
2022-12-08T00:26:07.548Z,941.77
2022-12-08T00:26:17.550Z,941.74
2022-12-08T00:26:27.543Z,941.74
2022-12-08T00:26:37.542Z,941.74
2022-12-08T00:26:47.543Z,941.74
2022-12-08T00:26:57.555Z,941.75
2022-12-08T00:27:07.546Z,941.75
2022-12-08T00:27:17.549Z,941.74
2022-12-08T00:27:27.548Z,941.73
2022-12-08T00:27:37.551Z,941.72
2022-12-08T00:27:47.550Z,941.72
2022-12-08T00:27:57.553Z,941.71
2022-12-08T00:28:07.553Z,941.70
2022-12-08T00:28:17.556Z,941.70
2022-12-08T00:28:27.555Z,941.69
2022-12-08T00:28:37.555Z,941.69
2022-12-08T00:28:47.556Z,941.68
2022-12-08T00:28:57.556Z,941.68
2022-12-08T00:29:07.559Z,941.68
2022-12-08T00:29:17.924Z,941.68
2022-12-08T00:29:27.557Z,941.67
2022-12-08T00:29:37.561Z,941.67
2022-12-08T00:29:47.558Z,941.66
2022-12-08T00:29:57.560Z,941.67
2022-12-08T00:30:07.566Z,941.67
2022-12-08T00:30:17.577Z,941.67
2022-12-08T00:30:27.565Z,941.66
2022-12-08T00:30:37.567Z,941.66
2022-12-08T00:30:47.572Z,941.65
2022-12-08T00:30:57.568Z,941.64
2022-12-08T00:31:07.568Z,941.61
2022-12-08T00:31:17.622Z,941.62
2022-12-08T00:31:27.661Z,941.64
2022-12-08T00:31:37.642Z,941.65
2022-12-08T00:31:47.688Z,941.65
2022-12-08T00:31:57.654Z,941.65
2022-12-08T00:32:07.729Z,941.65
2022-12-08T00:32:17.646Z,941.67
2022-12-08T00:32:27.577Z,941.67
2022-12-08T00:32:37.584Z,941.66
2022-12-08T00:32:47.579Z,941.64
2022-12-08T00:32:57.578Z,941.63
2022-12-08T00:33:07.580Z,941.63
2022-12-08T00:33:17.581Z,941.63
2022-12-08T00:33:27.584Z,941.62
2022-12-08T00:33:37.585Z,941.61
2022-12-08T00:33:47.585Z,941.61
2022-12-08T00:33:57.587Z,941.62
2022-12-08T00:34:07.595Z,941.63
2022-12-08T00:34:17.589Z,941.62
2022-12-08T00:34:27.591Z,941.60
2022-12-08T00:34:37.593Z,941.58
2022-12-08T00:34:47.594Z,941.58
2022-12-08T00:34:57.593Z,941.57
2022-12-08T00:35:07.592Z,941.58
2022-12-08T00:35:17.611Z,941.58
2022-12-08T00:35:27.597Z,941.60
2022-12-08T00:35:42.785Z,941.61
2022-12-08T00:35:48.601Z,941.61
2022-12-08T00:35:57.596Z,941.62
2022-12-08T00:36:07.602Z,941.61
2022-12-08T00:36:17.599Z,941.62
2022-12-08T00:36:27.599Z,941.62
2022-12-08T00:36:37.598Z,941.64
2022-12-08T00:36:47.603Z,941.65
2022-12-08T00:36:57.608Z,941.64
2022-12-08T00:37:07.605Z,941.65
2022-12-08T00:37:17.603Z,941.66
2022-12-08T00:37:27.604Z,941.66
2022-12-08T00:37:37.605Z,941.66
2022-12-08T00:37:47.606Z,941.67
2022-12-08T00:38:00.867Z,941.68
2022-12-08T00:38:07.607Z,941.69
2022-12-08T00:38:17.607Z,941.70
2022-12-08T00:38:27.608Z,941.69
2022-12-08T00:38:37.614Z,941.68
2022-12-08T00:38:47.616Z,941.68
2022-12-08T00:38:57.610Z,941.69
2022-12-08T00:39:07.611Z,941.67
2022-12-08T00:39:17.615Z,941.68
2022-12-08T00:39:27.614Z,941.71
2022-12-08T00:39:37.617Z,941.70
2022-12-08T00:39:47.618Z,941.70
2022-12-08T00:39:57.619Z,941.70
2022-12-08T00:40:07.645Z,941.70
2022-12-08T00:40:17.635Z,941.71
2022-12-08T00:40:27.618Z,941.72
2022-12-08T00:40:37.628Z,941.74
2022-12-08T00:40:47.626Z,941.74
2022-12-08T00:40:57.624Z,941.73
2022-12-08T00:41:07.638Z,941.73
2022-12-08T00:41:17.639Z,941.75
2022-12-08T00:41:27.628Z,941.76
2022-12-08T00:41:37.626Z,941.76
2022-12-08T00:41:47.627Z,941.73
2022-12-08T00:41:57.629Z,941.75
2022-12-08T00:42:07.631Z,941.75
2022-12-08T00:42:17.630Z,941.75
2022-12-08T00:42:27.631Z,941.74
2022-12-08T00:42:37.637Z,941.74
2022-12-08T00:42:47.634Z,941.73
2022-12-08T00:42:57.637Z,941.74
2022-12-08T00:43:07.637Z,941.75
2022-12-08T00:43:17.644Z,941.71
2022-12-08T00:43:27.636Z,941.69
2022-12-08T00:43:37.635Z,941.70
2022-12-08T00:43:47.639Z,941.72
2022-12-08T00:43:57.637Z,941.71
2022-12-08T00:44:07.644Z,941.71
2022-12-08T00:44:17.643Z,941.69
2022-12-08T00:44:27.641Z,941.69
2022-12-08T00:44:37.641Z,941.70
2022-12-08T00:44:47.642Z,941.69
2022-12-08T00:44:57.643Z,941.70
2022-12-08T00:45:07.647Z,941.71
2022-12-08T00:45:17.679Z,941.70
2022-12-08T00:45:27.650Z,941.70
2022-12-08T00:45:37.675Z,941.70
2022-12-08T00:45:47.721Z,941.74
2022-12-08T00:45:57.679Z,941.74
2022-12-08T00:46:07.757Z,941.75
2022-12-08T00:46:17.711Z,941.74
2022-12-08T00:46:27.681Z,941.72
2022-12-08T00:46:37.650Z,941.70
2022-12-08T00:46:47.654Z,941.71
2022-12-08T00:46:57.657Z,941.72
2022-12-08T00:47:07.658Z,941.72
2022-12-08T00:47:21.085Z,941.72
2022-12-08T00:47:28.659Z,941.71
2022-12-08T00:47:37.656Z,941.70
2022-12-08T00:47:47.657Z,941.70
2022-12-08T00:47:57.663Z,941.69
2022-12-08T00:48:07.666Z,941.67
2022-12-08T00:48:17.667Z,941.66
2022-12-08T00:48:27.663Z,941.67
2022-12-08T00:48:37.667Z,941.67
2022-12-08T00:48:47.663Z,941.67
2022-12-08T00:48:57.666Z,941.68
2022-12-08T00:49:07.664Z,941.70
2022-12-08T00:49:17.666Z,941.70
2022-12-08T00:49:27.685Z,941.67
2022-12-08T00:49:37.665Z,941.67
2022-12-08T00:49:47.669Z,941.67
2022-12-08T00:49:57.669Z,941.66
2022-12-08T00:50:07.676Z,941.66
2022-12-08T00:50:17.668Z,941.66
2022-12-08T00:50:27.676Z,941.66
2022-12-08T00:50:37.672Z,941.67
2022-12-08T00:50:47.681Z,941.65
2022-12-08T00:50:57.675Z,941.63
2022-12-08T00:51:07.677Z,941.62
2022-12-08T00:51:17.675Z,941.67
2022-12-08T00:51:27.678Z,941.68
2022-12-08T00:51:37.676Z,941.67
2022-12-08T00:51:47.677Z,941.68
2022-12-08T00:51:57.687Z,941.69
2022-12-08T00:52:07.685Z,941.69
2022-12-08T00:52:17.679Z,941.69
2022-12-08T00:52:27.682Z,941.70
2022-12-08T00:52:37.683Z,941.71
2022-12-08T00:52:47.683Z,941.72
2022-12-08T00:52:57.685Z,941.72
2022-12-08T00:53:07.689Z,941.71
2022-12-08T00:53:17.695Z,941.71
2022-12-08T00:53:27.685Z,941.71
2022-12-08T00:53:37.687Z,941.71
2022-12-08T00:53:47.686Z,941.71
2022-12-08T00:53:57.693Z,941.72
2022-12-08T00:54:07.690Z,941.72
2022-12-08T00:54:17.694Z,941.72
2022-12-08T00:54:27.692Z,941.72
2022-12-08T00:54:37.691Z,941.72
2022-12-08T00:54:47.689Z,941.73
2022-12-08T00:54:57.693Z,941.73
2022-12-08T00:55:07.726Z,941.72
2022-12-08T00:55:17.691Z,941.73
2022-12-08T00:55:27.701Z,941.73
2022-12-08T00:55:37.696Z,941.70
2022-12-08T00:55:47.697Z,941.69
2022-12-08T00:55:57.700Z,941.69
2022-12-08T00:56:07.705Z,941.69
2022-12-08T00:56:17.698Z,941.69
2022-12-08T00:56:27.699Z,941.70
2022-12-08T00:56:37.702Z,941.70
2022-12-08T00:56:47.702Z,941.69
2022-12-08T00:56:57.702Z,941.69
2022-12-08T00:57:07.701Z,941.70
2022-12-08T00:57:17.712Z,941.71
2022-12-08T00:57:27.702Z,941.70
2022-12-08T00:57:37.703Z,941.69
2022-12-08T00:57:47.706Z,941.66
2022-12-08T00:57:57.713Z,941.67
2022-12-08T00:58:07.706Z,941.66
2022-12-08T00:58:17.709Z,941.66
2022-12-08T00:58:27.708Z,941.66
2022-12-08T00:58:37.708Z,941.66
2022-12-08T00:58:47.709Z,941.66
2022-12-08T00:58:57.714Z,941.65
2022-12-08T00:59:07.713Z,941.64
2022-12-08T00:59:17.715Z,941.64
2022-12-08T00:59:27.713Z,941.65
2022-12-08T00:59:37.716Z,941.65
2022-12-08T00:59:47.714Z,941.65
2022-12-08T00:59:57.720Z,941.64
2022-12-08T01:00:07.715Z,941.65
2022-12-08T01:00:17.715Z,941.64
2022-12-08T01:00:27.719Z,941.63
2022-12-08T01:00:37.716Z,941.62
2022-12-08T01:00:47.766Z,941.61
2022-12-08T01:00:57.755Z,941.63
2022-12-08T01:01:07.792Z,941.62
2022-12-08T01:01:17.789Z,941.61
2022-12-08T01:01:27.864Z,941.60
2022-12-08T01:01:37.787Z,941.60
2022-12-08T01:01:47.725Z,941.60
2022-12-08T01:01:57.731Z,941.59
2022-12-08T01:02:07.728Z,941.61
2022-12-08T01:02:17.727Z,941.64
2022-12-08T01:02:27.737Z,941.67
2022-12-08T01:02:37.730Z,941.68
2022-12-08T01:02:47.796Z,941.64
2022-12-08T01:02:57.850Z,941.61
2022-12-08T01:03:07.770Z,941.62
2022-12-08T01:03:17.793Z,941.62
2022-12-08T01:03:27.818Z,941.62
2022-12-08T01:03:37.785Z,941.61
2022-12-08T01:03:47.811Z,941.60
2022-12-08T01:03:57.741Z,941.59
2022-12-08T01:04:07.745Z,941.60
2022-12-08T01:04:17.740Z,941.60
2022-12-08T01:04:27.743Z,941.61
2022-12-08T01:04:37.747Z,941.62
2022-12-08T01:04:47.747Z,941.62
2022-12-08T01:04:57.745Z,941.62
2022-12-08T01:05:07.750Z,941.62
2022-12-08T01:05:17.748Z,941.62
2022-12-08T01:05:27.751Z,941.61
2022-12-08T01:05:37.753Z,941.62
2022-12-08T01:05:47.751Z,941.62
2022-12-08T01:05:57.757Z,941.63
2022-12-08T01:06:07.753Z,941.64
2022-12-08T01:06:17.751Z,941.64
2022-12-08T01:06:27.756Z,941.61
2022-12-08T01:06:37.756Z,941.58
2022-12-08T01:06:47.755Z,941.56
2022-12-08T01:06:57.789Z,941.56
2022-12-08T01:07:07.758Z,941.56
2022-12-08T01:07:17.760Z,941.55
2022-12-08T01:07:27.765Z,941.55
2022-12-08T01:07:37.809Z,941.56
2022-12-08T01:07:47.807Z,941.56
2022-12-08T01:07:57.799Z,941.55
2022-12-08T01:08:07.819Z,941.56
2022-12-08T01:08:17.824Z,941.56
2022-12-08T01:08:27.846Z,941.56
2022-12-08T01:08:37.766Z,941.56
2022-12-08T01:08:47.770Z,941.56
2022-12-08T01:08:57.767Z,941.57
2022-12-08T01:09:07.769Z,941.58
2022-12-08T01:09:17.784Z,941.57
2022-12-08T01:09:27.770Z,941.54
2022-12-08T01:09:37.772Z,941.53
2022-12-08T01:09:47.773Z,941.51
2022-12-08T01:09:57.778Z,941.54
2022-12-08T01:10:07.779Z,941.54
2022-12-08T01:10:17.774Z,941.55
2022-12-08T01:10:27.781Z,941.55
2022-12-08T01:10:37.777Z,941.55
2022-12-08T01:10:47.792Z,941.57
2022-12-08T01:10:57.780Z,941.56
2022-12-08T01:11:07.780Z,941.56
2022-12-08T01:11:17.782Z,941.57
2022-12-08T01:11:27.782Z,941.58
2022-12-08T01:11:37.783Z,941.59
2022-12-08T01:11:47.787Z,941.59
2022-12-08T01:11:57.786Z,941.59
2022-12-08T01:12:07.788Z,941.58
2022-12-08T01:12:17.788Z,941.58
2022-12-08T01:12:27.789Z,941.58
2022-12-08T01:12:37.793Z,941.58
2022-12-08T01:12:47.792Z,941.57
2022-12-08T01:12:57.792Z,941.57
2022-12-08T01:13:07.799Z,941.56
2022-12-08T01:13:17.798Z,941.57
2022-12-08T01:13:27.803Z,941.59
2022-12-08T01:13:37.799Z,941.60
2022-12-08T01:13:47.801Z,941.61
2022-12-08T01:13:57.802Z,941.62
2022-12-08T01:14:07.817Z,941.62
2022-12-08T01:14:17.804Z,941.63
2022-12-08T01:14:27.807Z,941.63
2022-12-08T01:14:37.804Z,941.63
2022-12-08T01:14:47.831Z,941.63
2022-12-08T01:15:02.100Z,941.64
2022-12-08T01:15:07.804Z,941.65
2022-12-08T01:15:17.807Z,941.65
2022-12-08T01:15:27.839Z,941.64
2022-12-08T01:15:37.806Z,941.63
2022-12-08T01:15:47.814Z,941.62
2022-12-08T01:15:57.809Z,941.62
2022-12-08T01:16:07.813Z,941.63
2022-12-08T01:16:17.872Z,941.63
2022-12-08T01:16:27.856Z,941.61
2022-12-08T01:16:37.844Z,941.59
2022-12-08T01:16:47.871Z,941.58
2022-12-08T01:16:57.872Z,941.59
2022-12-08T01:17:07.817Z,941.60
2022-12-08T01:17:17.818Z,941.61
2022-12-08T01:17:27.818Z,941.60
2022-12-08T01:17:37.822Z,941.60
2022-12-08T01:17:47.856Z,941.61
2022-12-08T01:17:57.822Z,941.61
2022-12-08T01:18:07.821Z,941.62
2022-12-08T01:18:17.824Z,941.62
2022-12-08T01:18:27.826Z,941.61
2022-12-08T01:18:37.826Z,941.60
2022-12-08T01:18:47.829Z,941.62
2022-12-08T01:18:57.833Z,941.63
2022-12-08T01:19:07.831Z,941.63
2022-12-08T01:19:17.829Z,941.62
2022-12-08T01:19:27.836Z,941.61
2022-12-08T01:19:37.836Z,941.60
2022-12-08T01:19:47.830Z,941.60
2022-12-08T01:19:57.840Z,941.60
2022-12-08T01:20:07.838Z,941.59
2022-12-08T01:20:17.815Z,941.60
2022-12-08T01:20:27.832Z,941.61
2022-12-08T01:20:37.839Z,941.61
2022-12-08T01:20:47.838Z,941.62
2022-12-08T01:20:57.838Z,941.63
2022-12-08T01:21:07.839Z,941.64
2022-12-08T01:21:17.842Z,941.66
2022-12-08T01:21:27.841Z,941.66
2022-12-08T01:21:37.843Z,941.64
2022-12-08T01:21:47.855Z,941.62
2022-12-08T01:21:57.845Z,941.61
2022-12-08T01:22:07.844Z,941.61
2022-12-08T01:22:17.850Z,941.60
2022-12-08T01:22:27.847Z,941.60
2022-12-08T01:22:37.853Z,941.61
2022-12-08T01:22:47.848Z,941.62
2022-12-08T01:22:57.849Z,941.63
2022-12-08T01:23:07.856Z,941.65
2022-12-08T01:23:17.854Z,941.66
2022-12-08T01:23:27.857Z,941.65
2022-12-08T01:23:37.858Z,941.63
2022-12-08T01:23:47.858Z,941.63
2022-12-08T01:23:57.861Z,941.66
2022-12-08T01:24:07.859Z,941.66
2022-12-08T01:24:17.859Z,941.63
2022-12-08T01:24:27.861Z,941.62
2022-12-08T01:24:37.860Z,941.64
2022-12-08T01:24:47.864Z,941.66
2022-12-08T01:24:57.879Z,941.64
2022-12-08T01:25:07.869Z,941.61
2022-12-08T01:25:17.869Z,941.61
2022-12-08T01:25:27.867Z,941.64
2022-12-08T01:25:37.869Z,941.59
2022-12-08T01:25:47.873Z,941.59
2022-12-08T01:25:57.868Z,941.60
2022-12-08T01:26:07.871Z,941.63
2022-12-08T01:26:17.872Z,941.65
2022-12-08T01:26:27.870Z,941.66
2022-12-08T01:26:37.874Z,941.65
2022-12-08T01:26:47.876Z,941.66
2022-12-08T01:26:57.875Z,941.64
2022-12-08T01:27:07.874Z,941.63
2022-12-08T01:27:17.876Z,941.65
2022-12-08T01:27:27.876Z,941.64
2022-12-08T01:27:37.879Z,941.63
2022-12-08T01:27:47.879Z,941.64
2022-12-08T01:27:57.892Z,941.65
2022-12-08T01:28:07.863Z,941.66
2022-12-08T01:28:17.882Z,941.67
2022-12-08T01:28:27.889Z,941.67
2022-12-08T01:28:37.886Z,941.67
2022-12-08T01:28:47.884Z,941.66
2022-12-08T01:28:57.888Z,941.63
2022-12-08T01:29:07.888Z,941.62
2022-12-08T01:29:17.891Z,941.64
2022-12-08T01:29:27.894Z,941.65
2022-12-08T01:29:37.889Z,941.68
2022-12-08T01:29:47.891Z,941.65
2022-12-08T01:29:57.903Z,941.65
2022-12-08T01:30:07.896Z,941.64
2022-12-08T01:30:17.894Z,941.62
2022-12-08T01:30:27.958Z,941.61
2022-12-08T01:30:37.912Z,941.62
2022-12-08T01:30:47.936Z,941.64
2022-12-08T01:30:57.928Z,941.65
2022-12-08T01:31:07.954Z,941.65
2022-12-08T01:31:17.937Z,941.63
2022-12-08T01:31:27.988Z,941.61
2022-12-08T01:31:37.899Z,941.58
2022-12-08T01:31:47.901Z,941.56
2022-12-08T01:31:57.902Z,941.56
2022-12-08T01:32:07.904Z,941.56
2022-12-08T01:32:17.903Z,941.57
2022-12-08T01:32:27.905Z,941.57
2022-12-08T01:32:37.907Z,941.58
2022-12-08T01:32:47.922Z,941.59
2022-12-08T01:32:57.908Z,941.59
2022-12-08T01:33:07.907Z,941.60
2022-12-08T01:33:17.911Z,941.60
2022-12-08T01:33:27.912Z,941.61
2022-12-08T01:33:37.917Z,941.61
2022-12-08T01:33:47.919Z,941.61
2022-12-08T01:33:57.917Z,941.62
2022-12-08T01:34:07.919Z,941.64
2022-12-08T01:34:17.924Z,941.64
2022-12-08T01:34:27.924Z,941.62
2022-12-08T01:34:37.922Z,941.60
2022-12-08T01:34:47.920Z,941.59
2022-12-08T01:34:57.938Z,941.59
2022-12-08T01:35:07.925Z,941.61
2022-12-08T01:35:17.922Z,941.63
2022-12-08T01:35:27.937Z,941.65
2022-12-08T01:35:37.931Z,941.69
2022-12-08T01:35:47.926Z,941.68
2022-12-08T01:35:57.924Z,941.65
2022-12-08T01:36:07.927Z,941.63
2022-12-08T01:36:17.926Z,941.62
2022-12-08T01:36:27.928Z,941.62
2022-12-08T01:36:37.928Z,941.61
2022-12-08T01:36:47.932Z,941.61
2022-12-08T01:36:57.951Z,941.62
2022-12-08T01:37:07.933Z,941.62
2022-12-08T01:37:17.934Z,941.63
2022-12-08T01:37:27.944Z,941.63
2022-12-08T01:37:37.937Z,941.61
2022-12-08T01:37:47.938Z,941.60
2022-12-08T01:37:57.940Z,941.58
2022-12-08T01:38:07.958Z,941.56
2022-12-08T01:38:17.943Z,941.56
2022-12-08T01:38:27.941Z,941.57
2022-12-08T01:38:37.944Z,941.59
2022-12-08T01:38:47.946Z,941.59
2022-12-08T01:38:57.947Z,941.59
2022-12-08T01:39:07.976Z,941.59
2022-12-08T01:39:17.947Z,941.59
2022-12-08T01:39:27.947Z,941.61
2022-12-08T01:39:37.948Z,941.60
2022-12-08T01:39:47.952Z,941.61
2022-12-08T01:39:57.947Z,941.62
2022-12-08T01:40:07.985Z,941.64
2022-12-08T01:40:17.950Z,941.63
2022-12-08T01:40:27.953Z,941.63
2022-12-08T01:40:37.956Z,941.64
2022-12-08T01:40:47.957Z,941.61
2022-12-08T01:40:57.954Z,941.59
2022-12-08T01:41:07.954Z,941.58
2022-12-08T01:41:17.956Z,941.59
2022-12-08T01:41:27.939Z,941.59
2022-12-08T01:41:37.972Z,941.60
2022-12-08T01:41:47.961Z,941.58
2022-12-08T01:41:57.959Z,941.56
2022-12-08T01:42:07.978Z,941.55
2022-12-08T01:42:17.961Z,941.55
2022-12-08T01:42:27.967Z,941.56
2022-12-08T01:42:37.961Z,941.57
2022-12-08T01:42:47.962Z,941.56
2022-12-08T01:42:57.967Z,941.56
2022-12-08T01:43:07.973Z,941.56
2022-12-08T01:43:17.967Z,941.56
2022-12-08T01:43:27.972Z,941.58
2022-12-08T01:43:37.955Z,941.58
2022-12-08T01:43:47.973Z,941.58
2022-12-08T01:43:57.971Z,941.59
2022-12-08T01:44:07.988Z,941.60
2022-12-08T01:44:17.975Z,941.62
2022-12-08T01:44:27.978Z,941.59
2022-12-08T01:44:37.975Z,941.56
2022-12-08T01:44:47.976Z,941.54
2022-12-08T01:44:57.976Z,941.54
2022-12-08T01:45:07.981Z,941.56
2022-12-08T01:45:17.982Z,941.56
2022-12-08T01:45:27.981Z,941.57
2022-12-08T01:45:37.983Z,941.59
2022-12-08T01:45:48.059Z,941.59
2022-12-08T01:45:58.011Z,941.59
2022-12-08T01:46:08.025Z,941.62
2022-12-08T01:46:18.023Z,941.63
2022-12-08T01:46:28.080Z,941.62
2022-12-08T01:46:38.090Z,941.58
2022-12-08T01:46:47.986Z,941.57
2022-12-08T01:46:57.987Z,941.58
2022-12-08T01:47:07.991Z,941.59
2022-12-08T01:47:17.994Z,941.59
2022-12-08T01:47:28.105Z,941.59
2022-12-08T01:47:38.048Z,941.61
2022-12-08T01:47:48.066Z,941.62
2022-12-08T01:47:58.089Z,941.63
2022-12-08T01:48:08.098Z,941.63
2022-12-08T01:48:18.103Z,941.62
2022-12-08T01:48:28.040Z,941.61
2022-12-08T01:48:38.007Z,941.59
2022-12-08T01:48:47.997Z,941.59
2022-12-08T01:48:58.000Z,941.58
2022-12-08T01:49:07.999Z,941.58
2022-12-08T01:49:18.006Z,941.57
2022-12-08T01:49:28.006Z,941.57
2022-12-08T01:49:38.008Z,941.57
2022-12-08T01:49:48.004Z,941.58
2022-12-08T01:49:58.007Z,941.58
2022-12-08T01:50:08.005Z,941.59
2022-12-08T01:50:18.011Z,941.59
2022-12-08T01:50:28.017Z,941.58
2022-12-08T01:50:38.023Z,941.58
2022-12-08T01:50:48.010Z,941.58
2022-12-08T01:50:58.012Z,941.58
2022-12-08T01:51:08.011Z,941.58
2022-12-08T01:51:18.012Z,941.59
2022-12-08T01:51:28.014Z,941.59
2022-12-08T01:51:38.014Z,941.59
2022-12-08T01:51:48.018Z,941.58
2022-12-08T01:51:58.021Z,941.57
2022-12-08T01:52:08.023Z,941.57
2022-12-08T01:52:18.021Z,941.57
2022-12-08T01:52:28.022Z,941.58
2022-12-08T01:52:38.026Z,941.58
2022-12-08T01:52:48.028Z,941.59
2022-12-08T01:52:58.025Z,941.61
2022-12-08T01:53:08.032Z,941.61
2022-12-08T01:53:18.026Z,941.58
2022-12-08T01:53:28.031Z,941.54
2022-12-08T01:53:38.030Z,941.55
2022-12-08T01:53:48.034Z,941.57
2022-12-08T01:53:58.033Z,941.61
2022-12-08T01:54:08.043Z,941.62
2022-12-08T01:54:18.034Z,941.58
2022-12-08T01:54:28.037Z,941.49
2022-12-08T01:54:38.035Z,941.48
2022-12-08T01:54:48.036Z,941.50
2022-12-08T01:54:58.035Z,941.54
2022-12-08T01:55:08.038Z,941.56
2022-12-08T01:55:18.050Z,941.57
2022-12-08T01:55:28.044Z,941.58
2022-12-08T01:55:38.053Z,941.60
2022-12-08T01:55:48.041Z,941.60
2022-12-08T01:55:58.045Z,941.60
2022-12-08T01:56:08.049Z,941.60
2022-12-08T01:56:18.053Z,941.60
2022-12-08T01:56:28.045Z,941.59
2022-12-08T01:56:38.044Z,941.57
2022-12-08T01:56:48.050Z,941.57
2022-12-08T01:56:58.050Z,941.55
2022-12-08T01:57:08.047Z,941.53
2022-12-08T01:57:18.063Z,941.53
2022-12-08T01:57:28.056Z,941.53
2022-12-08T01:57:38.051Z,941.54
2022-12-08T01:57:48.053Z,941.54
2022-12-08T01:57:58.055Z,941.54
2022-12-08T01:58:08.055Z,941.54
2022-12-08T01:58:18.108Z,941.55
2022-12-08T01:58:28.058Z,941.56
2022-12-08T01:58:38.055Z,941.56
2022-12-08T01:58:48.063Z,941.56
2022-12-08T01:58:58.059Z,941.57
2022-12-08T01:59:08.062Z,941.56
2022-12-08T01:59:18.071Z,941.56
2022-12-08T01:59:28.066Z,941.57
2022-12-08T01:59:38.062Z,941.59
2022-12-08T01:59:48.066Z,941.59
2022-12-08T01:59:58.064Z,941.59
2022-12-08T02:00:08.446Z,941.56
2022-12-08T02:00:18.073Z,941.58
2022-12-08T02:00:28.076Z,941.59
2022-12-08T02:00:38.081Z,941.59
2022-12-08T02:00:48.076Z,941.59
2022-12-08T02:00:58.137Z,941.58
2022-12-08T02:01:08.122Z,941.57
2022-12-08T02:01:18.140Z,941.56
2022-12-08T02:01:28.113Z,941.57
2022-12-08T02:01:38.143Z,941.58
2022-12-08T02:01:48.125Z,941.57
2022-12-08T02:01:58.080Z,941.56
2022-12-08T02:02:08.144Z,941.57
2022-12-08T02:02:18.165Z,941.58
2022-12-08T02:02:28.113Z,941.56
2022-12-08T02:02:38.169Z,941.55
2022-12-08T02:02:48.189Z,941.55
2022-12-08T02:02:58.156Z,941.54
2022-12-08T02:03:08.090Z,941.54
2022-12-08T02:03:18.090Z,941.53
2022-12-08T02:03:28.096Z,941.52
2022-12-08T02:03:38.099Z,941.51
2022-12-08T02:03:48.093Z,941.50
2022-12-08T02:03:58.092Z,941.50
2022-12-08T02:04:08.100Z,941.52
2022-12-08T02:04:18.102Z,941.51
2022-12-08T02:04:28.100Z,941.52
2022-12-08T02:04:38.101Z,941.52
2022-12-08T02:04:48.112Z,941.55